<?xml version="1.0" encoding="utf-8"?>
<gpx xmlns:xsi="http://www.w3.org/2001/XMLSchema-instance" xmlns:xsd="http://www.w3.org/2001/XMLSchema" version="1.1" creator="Shapelink.com" xmlns="http://www.topografix.com/GPX/1/1" xmlns:gpxtpx="http://www.garmin.com/xmlschemas/TrackPointExtension/v1">
  <metadata>
    <name>Löpning 5.52 km, 2011-06-03</name>
    <desc></desc>
    <author><name>Jojje Borssén</name></author> 
    <time>2011-06-03T07:26:08Z</time>
  </metadata>
  <trk>
    <name>Löpning 5.52 km, 2011-06-03</name>
    <trkseg>
      <trkpt lat="41.3730919276" lon="2.18922671914">
        <ele>7.8</ele>
        <time>2011-06-03T07:26:08Z</time>
      </trkpt>
      <trkpt lat="41.3732283011" lon="2.18925354122">
        <ele>7.8</ele>
        <time>2011-06-03T07:26:13Z</time>
      </trkpt>
      <trkpt lat="41.3733957715" lon="2.18927667526">
        <ele>7.2</ele>
        <time>2011-06-03T07:26:19Z</time>
      </trkpt>
      <trkpt lat="41.3735329832" lon="2.18931749512">
        <ele>6.6</ele>
        <time>2011-06-03T07:26:24Z</time>
      </trkpt>
      <trkpt lat="41.3736879645" lon="2.18936317647">
        <ele>6.2</ele>
        <time>2011-06-03T07:26:31Z</time>
      </trkpt>
      <trkpt lat="41.3738115975" lon="2.18941464134">
        <ele>6</ele>
        <time>2011-06-03T07:26:36Z</time>
      </trkpt>
      <trkpt lat="41.3739699316" lon="2.189464346">
        <ele>5.8</ele>
        <time>2011-06-03T07:26:42Z</time>
      </trkpt>
      <trkpt lat="41.374133211" lon="2.1895212591">
        <ele>5.8</ele>
        <time>2011-06-03T07:26:48Z</time>
      </trkpt>
      <trkpt lat="41.3743270006" lon="2.18960499429">
        <ele>5.8</ele>
        <time>2011-06-03T07:26:55Z</time>
      </trkpt>
      <trkpt lat="41.3744970693" lon="2.18970088322">
        <ele>5.8</ele>
        <time>2011-06-03T07:27:02Z</time>
      </trkpt>
      <trkpt lat="41.3746438364" lon="2.18982602499">
        <ele>5.8</ele>
        <time>2011-06-03T07:27:09Z</time>
      </trkpt>
      <trkpt lat="41.3747923637" lon="2.18993976737">
        <ele>5.8</ele>
        <time>2011-06-03T07:27:15Z</time>
      </trkpt>
      <trkpt lat="41.3749194333" lon="2.19003976344">
        <ele>5.8</ele>
        <time>2011-06-03T07:27:21Z</time>
      </trkpt>
      <trkpt lat="41.3750371151" lon="2.19012224133">
        <ele>5.8</ele>
        <time>2011-06-03T07:27:27Z</time>
      </trkpt>
      <trkpt lat="41.375079779" lon="2.19014260935">
        <ele>5.8</ele>
        <time>2011-06-03T07:27:28Z</time>
      </trkpt>
      <trkpt lat="41.3751522824" lon="2.19019097291">
        <ele>5.8</ele>
        <time>2011-06-03T07:27:33Z</time>
      </trkpt>
      <trkpt lat="41.3753051683" lon="2.19022718272">
        <ele>5.8</ele>
        <time>2011-06-03T07:27:39Z</time>
      </trkpt>
      <trkpt lat="41.3754617422" lon="2.19025668701">
        <ele>5.8</ele>
        <time>2011-06-03T07:27:45Z</time>
      </trkpt>
      <trkpt lat="41.3756115267" lon="2.1903007758">
        <ele>5.8</ele>
        <time>2011-06-03T07:27:51Z</time>
      </trkpt>
      <trkpt lat="41.3757722078" lon="2.19035140248">
        <ele>5.8</ele>
        <time>2011-06-03T07:27:57Z</time>
      </trkpt>
      <trkpt lat="41.3759460484" lon="2.19045047654">
        <ele>6.6</ele>
        <time>2011-06-03T07:28:04Z</time>
      </trkpt>
      <trkpt lat="41.3760621377" lon="2.19053504991">
        <ele>7.2</ele>
        <time>2011-06-03T07:28:09Z</time>
      </trkpt>
      <trkpt lat="41.3761585295" lon="2.19058609568">
        <ele>7.4</ele>
        <time>2011-06-03T07:28:14Z</time>
      </trkpt>
      <trkpt lat="41.3762882813" lon="2.19064518807">
        <ele>7.6</ele>
        <time>2011-06-03T07:28:21Z</time>
      </trkpt>
      <trkpt lat="41.3763887803" lon="2.19070377756">
        <ele>7.6</ele>
        <time>2011-06-03T07:28:27Z</time>
      </trkpt>
      <trkpt lat="41.3765100664" lon="2.19075507478">
        <ele>7.8</ele>
        <time>2011-06-03T07:28:34Z</time>
      </trkpt>
      <trkpt lat="41.3766360464" lon="2.19080226488">
        <ele>7.8</ele>
        <time>2011-06-03T07:28:41Z</time>
      </trkpt>
      <trkpt lat="41.3767365454" lon="2.19085465176">
        <ele>7.8</ele>
        <time>2011-06-03T07:28:47Z</time>
      </trkpt>
      <trkpt lat="41.3768419058" lon="2.19092992122">
        <ele>7.8</ele>
        <time>2011-06-03T07:28:54Z</time>
      </trkpt>
      <trkpt lat="41.3769244676" lon="2.19098255955">
        <ele>8</ele>
        <time>2011-06-03T07:29:00Z</time>
      </trkpt>
      <trkpt lat="41.377034019" lon="2.19103318623">
        <ele>9</ele>
        <time>2011-06-03T07:29:07Z</time>
      </trkpt>
      <trkpt lat="41.3772651918" lon="2.19118204877">
        <ele>11</ele>
        <time>2011-06-03T07:29:19Z</time>
      </trkpt>
      <trkpt lat="41.3774145572" lon="2.19125924607">
        <ele>11.6</ele>
        <time>2011-06-03T07:29:26Z</time>
      </trkpt>
      <trkpt lat="41.3775805189" lon="2.1913709768">
        <ele>12</ele>
        <time>2011-06-03T07:29:34Z</time>
      </trkpt>
      <trkpt lat="41.3777239332" lon="2.19148740139">
        <ele>12</ele>
        <time>2011-06-03T07:29:40Z</time>
      </trkpt>
      <trkpt lat="41.3779008751" lon="2.19159695282">
        <ele>12</ele>
        <time>2011-06-03T07:29:49Z</time>
      </trkpt>
      <trkpt lat="41.3780552697" lon="2.19168990809">
        <ele>12.2</ele>
        <time>2011-06-03T07:29:56Z</time>
      </trkpt>
      <trkpt lat="41.3781827584" lon="2.19178219281">
        <ele>12.2</ele>
        <time>2011-06-03T07:30:02Z</time>
      </trkpt>
      <trkpt lat="41.3783032901" lon="2.19187573481">
        <ele>12.2</ele>
        <time>2011-06-03T07:30:07Z</time>
      </trkpt>
      <trkpt lat="41.3784710957" lon="2.19201520963">
        <ele>12.2</ele>
        <time>2011-06-03T07:30:15Z</time>
      </trkpt>
      <trkpt lat="41.3786191201" lon="2.19212878437">
        <ele>12.2</ele>
        <time>2011-06-03T07:30:22Z</time>
      </trkpt>
      <trkpt lat="41.3787524761" lon="2.19220757424">
        <ele>12.2</ele>
        <time>2011-06-03T07:30:28Z</time>
      </trkpt>
      <trkpt lat="41.3788543162" lon="2.19226876211">
        <ele>12.2</ele>
        <time>2011-06-03T07:30:33Z</time>
      </trkpt>
      <trkpt lat="41.3789682262" lon="2.19234872543">
        <ele>12.2</ele>
        <time>2011-06-03T07:30:39Z</time>
      </trkpt>
      <trkpt lat="41.3790906858" lon="2.19242022304">
        <ele>12.2</ele>
        <time>2011-06-03T07:30:45Z</time>
      </trkpt>
      <trkpt lat="41.379254049" lon="2.1925241586">
        <ele>12.2</ele>
        <time>2011-06-03T07:30:53Z</time>
      </trkpt>
      <trkpt lat="41.3793825436" lon="2.19259800314">
        <ele>12.2</ele>
        <time>2011-06-03T07:31:00Z</time>
      </trkpt>
      <trkpt lat="41.3795248682" lon="2.19268710273">
        <ele>12.2</ele>
        <time>2011-06-03T07:31:06Z</time>
      </trkpt>
      <trkpt lat="41.3796904107" lon="2.19278559006">
        <ele>12.2</ele>
        <time>2011-06-03T07:31:15Z</time>
      </trkpt>
      <trkpt lat="41.3798149658" lon="2.19285474073">
        <ele>12.6</ele>
        <time>2011-06-03T07:31:20Z</time>
      </trkpt>
      <trkpt lat="41.3799770717" lon="2.19294400797">
        <ele>13.4</ele>
        <time>2011-06-03T07:31:28Z</time>
      </trkpt>
      <trkpt lat="41.3801018782" lon="2.19302263019">
        <ele>13.8</ele>
        <time>2011-06-03T07:31:35Z</time>
      </trkpt>
      <trkpt lat="41.3802328035" lon="2.19307702872">
        <ele>14</ele>
        <time>2011-06-03T07:31:41Z</time>
      </trkpt>
      <trkpt lat="41.3803694285" lon="2.19313695931">
        <ele>14</ele>
        <time>2011-06-03T07:31:47Z</time>
      </trkpt>
      <trkpt lat="41.3804880323" lon="2.19319588406">
        <ele>14.2</ele>
        <time>2011-06-03T07:31:53Z</time>
      </trkpt>
      <trkpt lat="41.3806480428" lon="2.19329462285">
        <ele>14.4</ele>
        <time>2011-06-03T07:32:00Z</time>
      </trkpt>
      <trkpt lat="41.3807985817" lon="2.19339361309">
        <ele>15.4</ele>
        <time>2011-06-03T07:32:07Z</time>
      </trkpt>
      <trkpt lat="41.3809433371" lon="2.19349226805">
        <ele>15.8</ele>
        <time>2011-06-03T07:32:13Z</time>
      </trkpt>
      <trkpt lat="41.38105314" lon="2.19356208928">
        <ele>16</ele>
        <time>2011-06-03T07:32:18Z</time>
      </trkpt>
      <trkpt lat="41.3811431616" lon="2.1936133865">
        <ele>16</ele>
        <time>2011-06-03T07:32:23Z</time>
      </trkpt>
      <trkpt lat="41.3812122285" lon="2.19365110505">
        <ele>16</ele>
        <time>2011-06-03T07:32:26Z</time>
      </trkpt>
      <trkpt lat="41.3813037588" lon="2.19371497513">
        <ele>16.2</ele>
        <time>2011-06-03T07:32:30Z</time>
      </trkpt>
      <trkpt lat="41.3814853946" lon="2.19382838224">
        <ele>16.2</ele>
        <time>2011-06-03T07:32:38Z</time>
      </trkpt>
      <trkpt lat="41.381638951" lon="2.19393474855">
        <ele>16.2</ele>
        <time>2011-06-03T07:32:45Z</time>
      </trkpt>
      <trkpt lat="41.3817443953" lon="2.19400255812">
        <ele>16.2</ele>
        <time>2011-06-03T07:32:50Z</time>
      </trkpt>
      <trkpt lat="41.3818647594" lon="2.19407891723">
        <ele>16.2</ele>
        <time>2011-06-03T07:32:56Z</time>
      </trkpt>
      <trkpt lat="41.3818776675" lon="2.19409727359">
        <ele>16.2</ele>
        <time>2011-06-03T07:32:57Z</time>
      </trkpt>
      <trkpt lat="41.3818522704" lon="2.19417815893">
        <ele>16.2</ele>
        <time>2011-06-03T07:33:00Z</time>
      </trkpt>
      <trkpt lat="41.3818309804" lon="2.19421520692">
        <ele>16.2</ele>
        <time>2011-06-03T07:33:01Z</time>
      </trkpt>
      <trkpt lat="41.3817062577" lon="2.19416935793">
        <ele>16.2</ele>
        <time>2011-06-03T07:33:08Z</time>
      </trkpt>
      <trkpt lat="41.3816682877" lon="2.19415058247">
        <ele>16.2</ele>
        <time>2011-06-03T07:33:09Z</time>
      </trkpt>
      <trkpt lat="41.3816837104" lon="2.19425535622">
        <ele>15.6</ele>
        <time>2011-06-03T07:33:15Z</time>
      </trkpt>
      <trkpt lat="41.3816764181" lon="2.19429701427">
        <ele>15.4</ele>
        <time>2011-06-03T07:33:17Z</time>
      </trkpt>
      <trkpt lat="41.3816120451" lon="2.19442693372">
        <ele>14.8</ele>
        <time>2011-06-03T07:33:21Z</time>
      </trkpt>
      <trkpt lat="41.3815446547" lon="2.19460555201">
        <ele>13.4</ele>
        <time>2011-06-03T07:33:27Z</time>
      </trkpt>
      <trkpt lat="41.3815112109" lon="2.1947197973">
        <ele>12.8</ele>
        <time>2011-06-03T07:33:33Z</time>
      </trkpt>
      <trkpt lat="41.3815029966" lon="2.19474159024">
        <ele>12.6</ele>
        <time>2011-06-03T07:33:35Z</time>
      </trkpt>
      <trkpt lat="41.3814821257" lon="2.1947599466">
        <ele>12</ele>
        <time>2011-06-03T07:33:41Z</time>
      </trkpt>
      <trkpt lat="41.3814798626" lon="2.19479163019">
        <ele>10.2</ele>
        <time>2011-06-03T07:33:57Z</time>
      </trkpt>
      <trkpt lat="41.3814750849" lon="2.19477981171">
        <ele>8.2</ele>
        <time>2011-06-03T07:34:13Z</time>
      </trkpt>
      <trkpt lat="41.3814703072" lon="2.19477813533">
        <ele>7</ele>
        <time>2011-06-03T07:34:25Z</time>
      </trkpt>
      <trkpt lat="41.3814553036" lon="2.19475324108">
        <ele>6.4</ele>
        <time>2011-06-03T07:34:28Z</time>
      </trkpt>
      <trkpt lat="41.381466703" lon="2.19476396992">
        <ele>6.4</ele>
        <time>2011-06-03T07:34:30Z</time>
      </trkpt>
      <trkpt lat="41.381480114" lon="2.19477168126">
        <ele>6.2</ele>
        <time>2011-06-03T07:34:32Z</time>
      </trkpt>
      <trkpt lat="41.3814757554" lon="2.1948172788">
        <ele>6</ele>
        <time>2011-06-03T07:34:38Z</time>
      </trkpt>
      <trkpt lat="41.3814515317" lon="2.19482582834">
        <ele>5.8</ele>
        <time>2011-06-03T07:34:43Z</time>
      </trkpt>
      <trkpt lat="41.3814294035" lon="2.19481451277">
        <ele>5</ele>
        <time>2011-06-03T07:34:48Z</time>
      </trkpt>
      <trkpt lat="41.381403252" lon="2.19477545312">
        <ele>4.4</ele>
        <time>2011-06-03T07:34:54Z</time>
      </trkpt>
      <trkpt lat="41.3814025815" lon="2.1947506427">
        <ele>3.8</ele>
        <time>2011-06-03T07:35:03Z</time>
      </trkpt>
      <trkpt lat="41.3814003183" lon="2.19477101071">
        <ele>3.6</ele>
        <time>2011-06-03T07:35:23Z</time>
      </trkpt>
      <trkpt lat="41.3814002345" lon="2.19476505956">
        <ele>3.6</ele>
        <time>2011-06-03T07:35:51Z</time>
      </trkpt>
      <trkpt lat="41.381406018" lon="2.1947903729">
        <ele>3.6</ele>
        <time>2011-06-03T07:36:01Z</time>
      </trkpt>
      <trkpt lat="41.3814005698" lon="2.19480370012">
        <ele>3.6</ele>
        <time>2011-06-03T07:36:07Z</time>
      </trkpt>
      <trkpt lat="41.3814064371" lon="2.19478115281">
        <ele>3.6</ele>
        <time>2011-06-03T07:36:13Z</time>
      </trkpt>
      <trkpt lat="41.381403252" lon="2.19476438901">
        <ele>3.6</ele>
        <time>2011-06-03T07:36:31Z</time>
      </trkpt>
      <trkpt lat="41.3813989772" lon="2.19478886416">
        <ele>3.6</ele>
        <time>2011-06-03T07:36:36Z</time>
      </trkpt>
      <trkpt lat="41.3814306608" lon="2.19482499015">
        <ele>3.6</ele>
        <time>2011-06-03T07:36:43Z</time>
      </trkpt>
      <trkpt lat="41.3814286492" lon="2.19485675755">
        <ele>3.6</ele>
        <time>2011-06-03T07:36:48Z</time>
      </trkpt>
      <trkpt lat="41.3813984743" lon="2.19483504843">
        <ele>3.2</ele>
        <time>2011-06-03T07:36:53Z</time>
      </trkpt>
      <trkpt lat="41.3813918526" lon="2.19480017972">
        <ele>2.4</ele>
        <time>2011-06-03T07:37:00Z</time>
      </trkpt>
      <trkpt lat="41.381413897" lon="2.19477335764">
        <ele>1.6</ele>
        <time>2011-06-03T07:37:32Z</time>
      </trkpt>
      <trkpt lat="41.3814318343" lon="2.19471736655">
        <ele>1.6</ele>
        <time>2011-06-03T07:37:43Z</time>
      </trkpt>
      <trkpt lat="41.3814389589" lon="2.19470487752">
        <ele>1.6</ele>
        <time>2011-06-03T07:37:44Z</time>
      </trkpt>
      <trkpt lat="41.3814646075" lon="2.19464553367">
        <ele>1.6</ele>
        <time>2011-06-03T07:37:50Z</time>
      </trkpt>
      <trkpt lat="41.3814753363" lon="2.19461074878">
        <ele>1.6</ele>
        <time>2011-06-03T07:37:53Z</time>
      </trkpt>
      <trkpt lat="41.3815147313" lon="2.19452542104">
        <ele>1.6</ele>
        <time>2011-06-03T07:38:00Z</time>
      </trkpt>
      <trkpt lat="41.3815316627" lon="2.19447119015">
        <ele>1.6</ele>
        <time>2011-06-03T07:38:04Z</time>
      </trkpt>
      <trkpt lat="41.3815692136" lon="2.19440245857">
        <ele>1.6</ele>
        <time>2011-06-03T07:38:10Z</time>
      </trkpt>
      <trkpt lat="41.3815937726" lon="2.19424135845">
        <ele>1.6</ele>
        <time>2011-06-03T07:38:16Z</time>
      </trkpt>
      <trkpt lat="41.3816382805" lon="2.19414505042">
        <ele>1.6</ele>
        <time>2011-06-03T07:38:20Z</time>
      </trkpt>
      <trkpt lat="41.381726039" lon="2.19414940901">
        <ele>1.6</ele>
        <time>2011-06-03T07:38:25Z</time>
      </trkpt>
      <trkpt lat="41.381780689" lon="2.19416893884">
        <ele>1.6</ele>
        <time>2011-06-03T07:38:29Z</time>
      </trkpt>
      <trkpt lat="41.381790412" lon="2.19416734627">
        <ele>1.8</ele>
        <time>2011-06-03T07:38:31Z</time>
      </trkpt>
      <trkpt lat="41.381845481" lon="2.19414588861">
        <ele>2.4</ele>
        <time>2011-06-03T07:38:36Z</time>
      </trkpt>
      <trkpt lat="41.381838105" lon="2.19414588861">
        <ele>2.8</ele>
        <time>2011-06-03T07:38:40Z</time>
      </trkpt>
      <trkpt lat="41.3818671902" lon="2.19416810065">
        <ele>3</ele>
        <time>2011-06-03T07:38:44Z</time>
      </trkpt>
      <trkpt lat="41.3819708743" lon="2.19423347947">
        <ele>3.2</ele>
        <time>2011-06-03T07:38:49Z</time>
      </trkpt>
      <trkpt lat="41.3821121093" lon="2.19432199233">
        <ele>3.4</ele>
        <time>2011-06-03T07:38:55Z</time>
      </trkpt>
      <trkpt lat="41.3822597984" lon="2.19439516632">
        <ele>4.4</ele>
        <time>2011-06-03T07:39:01Z</time>
      </trkpt>
      <trkpt lat="41.3824419371" lon="2.19449088761">
        <ele>5</ele>
        <time>2011-06-03T07:39:08Z</time>
      </trkpt>
      <trkpt lat="41.3825852675" lon="2.19457629917">
        <ele>5.2</ele>
        <time>2011-06-03T07:39:14Z</time>
      </trkpt>
      <trkpt lat="41.3827428473" lon="2.19466917063">
        <ele>5.4</ele>
        <time>2011-06-03T07:39:20Z</time>
      </trkpt>
      <trkpt lat="41.3828834117" lon="2.19475986279">
        <ele>5.4</ele>
        <time>2011-06-03T07:39:26Z</time>
      </trkpt>
      <trkpt lat="41.3830383931" lon="2.19484577726">
        <ele>5.6</ele>
        <time>2011-06-03T07:39:32Z</time>
      </trkpt>
      <trkpt lat="41.3831920333" lon="2.19493957072">
        <ele>6.2</ele>
        <time>2011-06-03T07:39:38Z</time>
      </trkpt>
      <trkpt lat="41.3833160016" lon="2.1950069612">
        <ele>6.8</ele>
        <time>2011-06-03T07:39:43Z</time>
      </trkpt>
      <trkpt lat="41.3834957095" lon="2.19508801417">
        <ele>7.2</ele>
        <time>2011-06-03T07:39:50Z</time>
      </trkpt>
      <trkpt lat="41.3836649401" lon="2.19518306492">
        <ele>7.4</ele>
        <time>2011-06-03T07:39:57Z</time>
      </trkpt>
      <trkpt lat="41.3838013136" lon="2.1952628606">
        <ele>7.4</ele>
        <time>2011-06-03T07:40:03Z</time>
      </trkpt>
      <trkpt lat="41.3840119507" lon="2.19539554608">
        <ele>7.6</ele>
        <time>2011-06-03T07:40:11Z</time>
      </trkpt>
      <trkpt lat="41.3841779962" lon="2.19546159545">
        <ele>7.6</ele>
        <time>2011-06-03T07:40:17Z</time>
      </trkpt>
      <trkpt lat="41.3843456342" lon="2.19555413163">
        <ele>8.2</ele>
        <time>2011-06-03T07:40:23Z</time>
      </trkpt>
      <trkpt lat="41.3844765595" lon="2.19566334779">
        <ele>8.8</ele>
        <time>2011-06-03T07:40:29Z</time>
      </trkpt>
      <trkpt lat="41.3846269307" lon="2.19580868993">
        <ele>9.2</ele>
        <time>2011-06-03T07:40:36Z</time>
      </trkpt>
      <trkpt lat="41.3847568502" lon="2.19595243952">
        <ele>9.4</ele>
        <time>2011-06-03T07:40:42Z</time>
      </trkpt>
      <trkpt lat="41.3848913797" lon="2.1961402779">
        <ele>10.6</ele>
        <time>2011-06-03T07:40:49Z</time>
      </trkpt>
      <trkpt lat="41.3850096483" lon="2.19630950846">
        <ele>11.2</ele>
        <time>2011-06-03T07:40:55Z</time>
      </trkpt>
      <trkpt lat="41.385120457" lon="2.19644219393">
        <ele>11.4</ele>
        <time>2011-06-03T07:41:00Z</time>
      </trkpt>
      <trkpt lat="41.3852359596" lon="2.19656364767">
        <ele>12.4</ele>
        <time>2011-06-03T07:41:05Z</time>
      </trkpt>
      <trkpt lat="41.3853764402" lon="2.19672675944">
        <ele>13.6</ele>
        <time>2011-06-03T07:41:12Z</time>
      </trkpt>
      <trkpt lat="41.3855139872" lon="2.19692214153">
        <ele>15</ele>
        <time>2011-06-03T07:41:20Z</time>
      </trkpt>
      <trkpt lat="41.3856219461" lon="2.19707351864">
        <ele>16.4</ele>
        <time>2011-06-03T07:41:25Z</time>
      </trkpt>
      <trkpt lat="41.3857527876" lon="2.19721852551">
        <ele>17.2</ele>
        <time>2011-06-03T07:41:31Z</time>
      </trkpt>
      <trkpt lat="41.3858715591" lon="2.19735900616">
        <ele>17.8</ele>
        <time>2011-06-03T07:41:37Z</time>
      </trkpt>
      <trkpt lat="41.3859045838" lon="2.19739446159">
        <ele>18.2</ele>
        <time>2011-06-03T07:41:39Z</time>
      </trkpt>
      <trkpt lat="41.3859787636" lon="2.19754324032">
        <ele>19.2</ele>
        <time>2011-06-03T07:41:45Z</time>
      </trkpt>
      <trkpt lat="41.3860863034" lon="2.19767047756">
        <ele>19.6</ele>
        <time>2011-06-03T07:41:50Z</time>
      </trkpt>
      <trkpt lat="41.386166602" lon="2.19778162155">
        <ele>19.8</ele>
        <time>2011-06-03T07:41:54Z</time>
      </trkpt>
      <trkpt lat="41.3862878042" lon="2.19795026538">
        <ele>20</ele>
        <time>2011-06-03T07:42:00Z</time>
      </trkpt>
      <trkpt lat="41.386399535" lon="2.19812745875">
        <ele>20.2</ele>
        <time>2011-06-03T07:42:06Z</time>
      </trkpt>
      <trkpt lat="41.3865758901" lon="2.19811874157">
        <ele>20.2</ele>
        <time>2011-06-03T07:42:14Z</time>
      </trkpt>
      <trkpt lat="41.3866997746" lon="2.19792889154">
        <ele>20</ele>
        <time>2011-06-03T07:42:22Z</time>
      </trkpt>
      <trkpt lat="41.386734811" lon="2.1978801927">
        <ele>19.6</ele>
        <time>2011-06-03T07:42:24Z</time>
      </trkpt>
      <trkpt lat="41.3868214798" lon="2.19780869509">
        <ele>19.2</ele>
        <time>2011-06-03T07:42:28Z</time>
      </trkpt>
      <trkpt lat="41.3869125911" lon="2.19768824719">
        <ele>18.8</ele>
        <time>2011-06-03T07:42:33Z</time>
      </trkpt>
      <trkpt lat="41.3870118327" lon="2.19758850258">
        <ele>18.6</ele>
        <time>2011-06-03T07:42:38Z</time>
      </trkpt>
      <trkpt lat="41.3871387347" lon="2.19761666576">
        <ele>18.4</ele>
        <time>2011-06-03T07:42:43Z</time>
      </trkpt>
      <trkpt lat="41.387278461" lon="2.19779293712">
        <ele>18.4</ele>
        <time>2011-06-03T07:42:49Z</time>
      </trkpt>
      <trkpt lat="41.3874252281" lon="2.19794951101">
        <ele>18.2</ele>
        <time>2011-06-03T07:42:55Z</time>
      </trkpt>
      <trkpt lat="41.3875779463" lon="2.19809979848">
        <ele>19</ele>
        <time>2011-06-03T07:43:01Z</time>
      </trkpt>
      <trkpt lat="41.3877125596" lon="2.19827254944">
        <ele>19.6</ele>
        <time>2011-06-03T07:43:07Z</time>
      </trkpt>
      <trkpt lat="41.3878364441" lon="2.19843658322">
        <ele>20</ele>
        <time>2011-06-03T07:43:13Z</time>
      </trkpt>
      <trkpt lat="41.3879637651" lon="2.19859081018">
        <ele>20</ele>
        <time>2011-06-03T07:43:20Z</time>
      </trkpt>
      <trkpt lat="41.3880793515" lon="2.19874537242">
        <ele>20.2</ele>
        <time>2011-06-03T07:43:25Z</time>
      </trkpt>
      <trkpt lat="41.3881712172" lon="2.19884687723">
        <ele>20.2</ele>
        <time>2011-06-03T07:43:29Z</time>
      </trkpt>
      <trkpt lat="41.3882781702" lon="2.19896698985">
        <ele>20.2</ele>
        <time>2011-06-03T07:43:34Z</time>
      </trkpt>
      <trkpt lat="41.3883730533" lon="2.19909749604">
        <ele>20.2</ele>
        <time>2011-06-03T07:43:39Z</time>
      </trkpt>
      <trkpt lat="41.3884540225" lon="2.19923797668">
        <ele>20.2</ele>
        <time>2011-06-03T07:43:44Z</time>
      </trkpt>
      <trkpt lat="41.3885222511" lon="2.19933445235">
        <ele>20.2</ele>
        <time>2011-06-03T07:43:48Z</time>
      </trkpt>
      <trkpt lat="41.3886262705" lon="2.19949873759">
        <ele>20.2</ele>
        <time>2011-06-03T07:43:54Z</time>
      </trkpt>
      <trkpt lat="41.3887375821" lon="2.19965883188">
        <ele>20.2</ele>
        <time>2011-06-03T07:44:00Z</time>
      </trkpt>
      <trkpt lat="41.3888201439" lon="2.19972722818">
        <ele>19.8</ele>
        <time>2011-06-03T07:44:04Z</time>
      </trkpt>
      <trkpt lat="41.3889374905" lon="2.19990844486">
        <ele>19.2</ele>
        <time>2011-06-03T07:44:11Z</time>
      </trkpt>
      <trkpt lat="41.3890375703" lon="2.2000308206">
        <ele>18.8</ele>
        <time>2011-06-03T07:44:15Z</time>
      </trkpt>
      <trkpt lat="41.3891575153" lon="2.2001715527">
        <ele>18.6</ele>
        <time>2011-06-03T07:44:21Z</time>
      </trkpt>
      <trkpt lat="41.3892708386" lon="2.20023869172">
        <ele>18.4</ele>
        <time>2011-06-03T07:44:27Z</time>
      </trkpt>
      <trkpt lat="41.3893826532" lon="2.2002840378">
        <ele>18.4</ele>
        <time>2011-06-03T07:44:32Z</time>
      </trkpt>
      <trkpt lat="41.3894803023" lon="2.20035394285">
        <ele>18.4</ele>
        <time>2011-06-03T07:44:37Z</time>
      </trkpt>
      <trkpt lat="41.3895872553" lon="2.20043382235">
        <ele>17.8</ele>
        <time>2011-06-03T07:44:42Z</time>
      </trkpt>
      <trkpt lat="41.3896048573" lon="2.20043591783">
        <ele>17.8</ele>
        <time>2011-06-03T07:44:43Z</time>
      </trkpt>
      <trkpt lat="41.3897159175" lon="2.20048939435">
        <ele>17.2</ele>
        <time>2011-06-03T07:44:47Z</time>
      </trkpt>
      <trkpt lat="41.3898524587" lon="2.2005659211">
        <ele>16.8</ele>
        <time>2011-06-03T07:44:51Z</time>
      </trkpt>
      <trkpt lat="41.3899933584" lon="2.20061503903">
        <ele>16.6</ele>
        <time>2011-06-03T07:44:57Z</time>
      </trkpt>
      <trkpt lat="41.3901537041" lon="2.20067505343">
        <ele>16.4</ele>
        <time>2011-06-03T07:45:03Z</time>
      </trkpt>
      <trkpt lat="41.3902662731" lon="2.20078074919">
        <ele>16.2</ele>
        <time>2011-06-03T07:45:08Z</time>
      </trkpt>
      <trkpt lat="41.390412621" lon="2.20092550461">
        <ele>16.2</ele>
        <time>2011-06-03T07:45:13Z</time>
      </trkpt>
      <trkpt lat="41.3905421214" lon="2.2010922206">
        <ele>16.2</ele>
        <time>2011-06-03T07:45:20Z</time>
      </trkpt>
      <trkpt lat="41.3906712027" lon="2.20130160046">
        <ele>16.2</ele>
        <time>2011-06-03T07:45:27Z</time>
      </trkpt>
      <trkpt lat="41.3907806703" lon="2.20148365533">
        <ele>16.2</ele>
        <time>2011-06-03T07:45:33Z</time>
      </trkpt>
      <trkpt lat="41.3908543472" lon="2.2016352839">
        <ele>16.2</ele>
        <time>2011-06-03T07:45:38Z</time>
      </trkpt>
      <trkpt lat="41.3909483083" lon="2.20182362519">
        <ele>16.2</ele>
        <time>2011-06-03T07:45:43Z</time>
      </trkpt>
      <trkpt lat="41.3910343904" lon="2.20198346802">
        <ele>16.2</ele>
        <time>2011-06-03T07:45:48Z</time>
      </trkpt>
      <trkpt lat="41.391082251" lon="2.20210592758">
        <ele>16.2</ele>
        <time>2011-06-03T07:45:53Z</time>
      </trkpt>
      <trkpt lat="41.3911006074" lon="2.2021518604">
        <ele>16.2</ele>
        <time>2011-06-03T07:45:55Z</time>
      </trkpt>
      <trkpt lat="41.3910561833" lon="2.20208396701">
        <ele>16.2</ele>
        <time>2011-06-03T07:45:58Z</time>
      </trkpt>
      <trkpt lat="41.3910351447" lon="2.20205504945">
        <ele>16.2</ele>
        <time>2011-06-03T07:46:00Z</time>
      </trkpt>
      <trkpt lat="41.3909232464" lon="2.20187500624">
        <ele>16.2</ele>
        <time>2011-06-03T07:46:06Z</time>
      </trkpt>
      <trkpt lat="41.3907952548" lon="2.20166612929">
        <ele>16</ele>
        <time>2011-06-03T07:46:13Z</time>
      </trkpt>
      <trkpt lat="41.3907069934" lon="2.20151014213">
        <ele>15.2</ele>
        <time>2011-06-03T07:46:18Z</time>
      </trkpt>
      <trkpt lat="41.3905911555" lon="2.20131207783">
        <ele>14.6</ele>
        <time>2011-06-03T07:46:25Z</time>
      </trkpt>
      <trkpt lat="41.3905080909" lon="2.20119925746">
        <ele>14.4</ele>
        <time>2011-06-03T07:46:28Z</time>
      </trkpt>
      <trkpt lat="41.3903544507" lon="2.20101309546">
        <ele>14.2</ele>
        <time>2011-06-03T07:46:36Z</time>
      </trkpt>
      <trkpt lat="41.3902448154" lon="2.20088543912">
        <ele>14.2</ele>
        <time>2011-06-03T07:46:41Z</time>
      </trkpt>
      <trkpt lat="41.390080614" lon="2.2007181364">
        <ele>14.2</ele>
        <time>2011-06-03T07:46:48Z</time>
      </trkpt>
      <trkpt lat="41.3899563104" lon="2.20062568404">
        <ele>14.2</ele>
        <time>2011-06-03T07:46:53Z</time>
      </trkpt>
      <trkpt lat="41.3898207751" lon="2.20057639847">
        <ele>14.2</ele>
        <time>2011-06-03T07:46:57Z</time>
      </trkpt>
      <trkpt lat="41.3896548973" lon="2.20052367632">
        <ele>14.2</ele>
        <time>2011-06-03T07:47:03Z</time>
      </trkpt>
      <trkpt lat="41.3894953897" lon="2.20044740103">
        <ele>14.2</ele>
        <time>2011-06-03T07:47:09Z</time>
      </trkpt>
      <trkpt lat="41.3893202918" lon="2.20031865505">
        <ele>14.2</ele>
        <time>2011-06-03T07:47:17Z</time>
      </trkpt>
      <trkpt lat="41.3891697529" lon="2.20019485438">
        <ele>14.2</ele>
        <time>2011-06-03T07:47:23Z</time>
      </trkpt>
      <trkpt lat="41.3890625484" lon="2.20010047419">
        <ele>14.2</ele>
        <time>2011-06-03T07:47:27Z</time>
      </trkpt>
      <trkpt lat="41.3889778912" lon="2.19998069684">
        <ele>14.2</ele>
        <time>2011-06-03T07:47:32Z</time>
      </trkpt>
      <trkpt lat="41.3888323814" lon="2.19979721705">
        <ele>14.2</ele>
        <time>2011-06-03T07:47:38Z</time>
      </trkpt>
      <trkpt lat="41.3887226624" lon="2.19966754905">
        <ele>14.2</ele>
        <time>2011-06-03T07:47:43Z</time>
      </trkpt>
      <trkpt lat="41.3886842733" lon="2.19961465927">
        <ele>14.2</ele>
        <time>2011-06-03T07:47:45Z</time>
      </trkpt>
      <trkpt lat="41.3886212414" lon="2.19953695905">
        <ele>14.2</ele>
        <time>2011-06-03T07:47:48Z</time>
      </trkpt>
      <trkpt lat="41.3885039786" lon="2.19938952143">
        <ele>14.2</ele>
        <time>2011-06-03T07:47:55Z</time>
      </trkpt>
      <trkpt lat="41.388375065" lon="2.19924711295">
        <ele>14.2</ele>
        <time>2011-06-03T07:48:01Z</time>
      </trkpt>
      <trkpt lat="41.3882598138" lon="2.19908157043">
        <ele>14.2</ele>
        <time>2011-06-03T07:48:08Z</time>
      </trkpt>
      <trkpt lat="41.3881272122" lon="2.19890881947">
        <ele>14.2</ele>
        <time>2011-06-03T07:48:15Z</time>
      </trkpt>
      <trkpt lat="41.3880352627" lon="2.19878099549">
        <ele>14.2</ele>
        <time>2011-06-03T07:48:20Z</time>
      </trkpt>
      <trkpt lat="41.3879218556" lon="2.19868225671">
        <ele>14.2</ele>
        <time>2011-06-03T07:48:25Z</time>
      </trkpt>
      <trkpt lat="41.3877917685" lon="2.19859994645">
        <ele>14.2</ele>
        <time>2011-06-03T07:48:30Z</time>
      </trkpt>
      <trkpt lat="41.3876457558" lon="2.19842442947">
        <ele>14.2</ele>
        <time>2011-06-03T07:48:37Z</time>
      </trkpt>
      <trkpt lat="41.3875031797" lon="2.19825905458">
        <ele>14.2</ele>
        <time>2011-06-03T07:48:44Z</time>
      </trkpt>
      <trkpt lat="41.3873879286" lon="2.19810465998">
        <ele>14.2</ele>
        <time>2011-06-03T07:48:50Z</time>
      </trkpt>
      <trkpt lat="41.3872844121" lon="2.19797348325">
        <ele>14.2</ele>
        <time>2011-06-03T07:48:55Z</time>
      </trkpt>
      <trkpt lat="41.3871341247" lon="2.19779310476">
        <ele>14.2</ele>
        <time>2011-06-03T07:49:01Z</time>
      </trkpt>
      <trkpt lat="41.3869984217" lon="2.1976552225">
        <ele>14.2</ele>
        <time>2011-06-03T07:49:08Z</time>
      </trkpt>
      <trkpt lat="41.3869618766" lon="2.19765547396">
        <ele>14.2</ele>
        <time>2011-06-03T07:49:09Z</time>
      </trkpt>
      <trkpt lat="41.386832963" lon="2.19782177086">
        <ele>14.2</ele>
        <time>2011-06-03T07:49:16Z</time>
      </trkpt>
      <trkpt lat="41.386706564" lon="2.19799670111">
        <ele>14.2</ele>
        <time>2011-06-03T07:49:23Z</time>
      </trkpt>
      <trkpt lat="41.3866078252" lon="2.19813089533">
        <ele>14.2</ele>
        <time>2011-06-03T07:49:27Z</time>
      </trkpt>
      <trkpt lat="41.3865000339" lon="2.19827959023">
        <ele>14.2</ele>
        <time>2011-06-03T07:49:33Z</time>
      </trkpt>
      <trkpt lat="41.3864758941" lon="2.1983059094">
        <ele>14.2</ele>
        <time>2011-06-03T07:49:35Z</time>
      </trkpt>
      <trkpt lat="41.386353183" lon="2.19837346751">
        <ele>14.2</ele>
        <time>2011-06-03T07:49:41Z</time>
      </trkpt>
      <trkpt lat="41.3862494151" lon="2.19829459383">
        <ele>14.2</ele>
        <time>2011-06-03T07:49:45Z</time>
      </trkpt>
      <trkpt lat="41.3861009717" lon="2.19809317678">
        <ele>14.2</ele>
        <time>2011-06-03T07:49:53Z</time>
      </trkpt>
      <trkpt lat="41.3859819487" lon="2.19792176692">
        <ele>14.2</ele>
        <time>2011-06-03T07:49:58Z</time>
      </trkpt>
      <trkpt lat="41.3858081919" lon="2.1976922705">
        <ele>14.2</ele>
        <time>2011-06-03T07:50:07Z</time>
      </trkpt>
      <trkpt lat="41.3856088703" lon="2.19742119985">
        <ele>14.2</ele>
        <time>2011-06-03T07:50:18Z</time>
      </trkpt>
      <trkpt lat="41.3854833095" lon="2.19724643724">
        <ele>14.2</ele>
        <time>2011-06-03T07:50:23Z</time>
      </trkpt>
      <trkpt lat="41.3853364586" lon="2.19705868268">
        <ele>15.2</ele>
        <time>2011-06-03T07:50:31Z</time>
      </trkpt>
      <trkpt lat="41.3851869255" lon="2.19686447406">
        <ele>15.8</ele>
        <time>2011-06-03T07:50:38Z</time>
      </trkpt>
      <trkpt lat="41.3850407451" lon="2.19667889879">
        <ele>16</ele>
        <time>2011-06-03T07:50:45Z</time>
      </trkpt>
      <trkpt lat="41.384900516" lon="2.19648510926">
        <ele>16</ele>
        <time>2011-06-03T07:50:51Z</time>
      </trkpt>
      <trkpt lat="41.3847765477" lon="2.19630447932">
        <ele>16.2</ele>
        <time>2011-06-03T07:50:57Z</time>
      </trkpt>
      <trkpt lat="41.3846410962" lon="2.19608789102">
        <ele>16.2</ele>
        <time>2011-06-03T07:51:05Z</time>
      </trkpt>
      <trkpt lat="41.3845252583" lon="2.19590541706">
        <ele>16.2</ele>
        <time>2011-06-03T07:51:11Z</time>
      </trkpt>
      <trkpt lat="41.3843645773" lon="2.19573920398">
        <ele>16.2</ele>
        <time>2011-06-03T07:51:18Z</time>
      </trkpt>
      <trkpt lat="41.3842215821" lon="2.19562747325">
        <ele>16.2</ele>
        <time>2011-06-03T07:51:23Z</time>
      </trkpt>
      <trkpt lat="41.3840417065" lon="2.19551029429">
        <ele>16.2</ele>
        <time>2011-06-03T07:51:31Z</time>
      </trkpt>
      <trkpt lat="41.3838930116" lon="2.1954088733">
        <ele>16.2</ele>
        <time>2011-06-03T07:51:37Z</time>
      </trkpt>
      <trkpt lat="41.3837366053" lon="2.19531860024">
        <ele>16.2</ele>
        <time>2011-06-03T07:51:43Z</time>
      </trkpt>
      <trkpt lat="41.3835555563" lon="2.19521265302">
        <ele>16.2</ele>
        <time>2011-06-03T07:51:50Z</time>
      </trkpt>
      <trkpt lat="41.3833714898" lon="2.19508960673">
        <ele>16.2</ele>
        <time>2011-06-03T07:51:57Z</time>
      </trkpt>
      <trkpt lat="41.3831932067" lon="2.1949813964">
        <ele>16.2</ele>
        <time>2011-06-03T07:52:03Z</time>
      </trkpt>
      <trkpt lat="41.3830558274" lon="2.19490654603">
        <ele>15.4</ele>
        <time>2011-06-03T07:52:08Z</time>
      </trkpt>
      <trkpt lat="41.3828993373" lon="2.19481484805">
        <ele>14.8</ele>
        <time>2011-06-03T07:52:15Z</time>
      </trkpt>
      <trkpt lat="41.3827155223" lon="2.19471401379">
        <ele>14.4</ele>
        <time>2011-06-03T07:52:21Z</time>
      </trkpt>
      <trkpt lat="41.3825645642" lon="2.19461753812">
        <ele>14.2</ele>
        <time>2011-06-03T07:52:27Z</time>
      </trkpt>
      <trkpt lat="41.382382677" lon="2.1945036281">
        <ele>14.2</ele>
        <time>2011-06-03T07:52:35Z</time>
      </trkpt>
      <trkpt lat="41.3822061542" lon="2.19438879607">
        <ele>14.2</ele>
        <time>2011-06-03T07:52:42Z</time>
      </trkpt>
      <trkpt lat="41.3820536036" lon="2.19428586634">
        <ele>14.2</ele>
        <time>2011-06-03T07:52:48Z</time>
      </trkpt>
      <trkpt lat="41.3818652623" lon="2.19418050586">
        <ele>14.2</ele>
        <time>2011-06-03T07:52:55Z</time>
      </trkpt>
      <trkpt lat="41.3817058386" lon="2.19408746677">
        <ele>14.2</ele>
        <time>2011-06-03T07:53:01Z</time>
      </trkpt>
      <trkpt lat="41.3816007296" lon="2.19402384815">
        <ele>14.2</ele>
        <time>2011-06-03T07:53:04Z</time>
      </trkpt>
      <trkpt lat="41.3815758353" lon="2.19400850927">
        <ele>14.2</ele>
        <time>2011-06-03T07:53:05Z</time>
      </trkpt>
      <trkpt lat="41.3814097899" lon="2.19391756565">
        <ele>14.2</ele>
        <time>2011-06-03T07:53:12Z</time>
      </trkpt>
      <trkpt lat="41.3812255557" lon="2.19380784658">
        <ele>14.8</ele>
        <time>2011-06-03T07:53:18Z</time>
      </trkpt>
      <trkpt lat="41.3810467698" lon="2.19370273756">
        <ele>15.6</ele>
        <time>2011-06-03T07:53:26Z</time>
      </trkpt>
      <trkpt lat="41.380899416" lon="2.19361095575">
        <ele>15.8</ele>
        <time>2011-06-03T07:53:32Z</time>
      </trkpt>
      <trkpt lat="41.3807499667" lon="2.19351741375">
        <ele>16</ele>
        <time>2011-06-03T07:53:38Z</time>
      </trkpt>
      <trkpt lat="41.3805713484" lon="2.19340878432">
        <ele>16</ele>
        <time>2011-06-03T07:53:45Z</time>
      </trkpt>
      <trkpt lat="41.3804378248" lon="2.19332303749">
        <ele>16</ele>
        <time>2011-06-03T07:53:50Z</time>
      </trkpt>
      <trkpt lat="41.3803072348" lon="2.19323770974">
        <ele>16.2</ele>
        <time>2011-06-03T07:53:55Z</time>
      </trkpt>
      <trkpt lat="41.3801217433" lon="2.19312916414">
        <ele>16.2</ele>
        <time>2011-06-03T07:54:02Z</time>
      </trkpt>
      <trkpt lat="41.3799490762" lon="2.19301525412">
        <ele>16.2</ele>
        <time>2011-06-03T07:54:08Z</time>
      </trkpt>
      <trkpt lat="41.379840782" lon="2.19295180314">
        <ele>16.2</ele>
        <time>2011-06-03T07:54:13Z</time>
      </trkpt>
      <trkpt lat="41.3797085156" lon="2.1928660563">
        <ele>16.2</ele>
        <time>2011-06-03T07:54:18Z</time>
      </trkpt>
      <trkpt lat="41.3795389498" lon="2.19276631169">
        <ele>16.2</ele>
        <time>2011-06-03T07:54:25Z</time>
      </trkpt>
      <trkpt lat="41.3793901711" lon="2.19267293732">
        <ele>16.2</ele>
        <time>2011-06-03T07:54:31Z</time>
      </trkpt>
      <trkpt lat="41.3792363632" lon="2.19257277362">
        <ele>16.2</ele>
        <time>2011-06-03T07:54:37Z</time>
      </trkpt>
      <trkpt lat="41.3790599242" lon="2.19246540148">
        <ele>16.2</ele>
        <time>2011-06-03T07:54:44Z</time>
      </trkpt>
      <trkpt lat="41.3789330223" lon="2.19237370349">
        <ele>16.2</ele>
        <time>2011-06-03T07:54:49Z</time>
      </trkpt>
      <trkpt lat="41.3787774542" lon="2.19225099248">
        <ele>16.2</ele>
        <time>2011-06-03T07:54:55Z</time>
      </trkpt>
      <trkpt lat="41.3786224729" lon="2.19214621873">
        <ele>16.2</ele>
        <time>2011-06-03T07:55:01Z</time>
      </trkpt>
      <trkpt lat="41.3784488837" lon="2.1920111025">
        <ele>16.2</ele>
        <time>2011-06-03T07:55:08Z</time>
      </trkpt>
      <trkpt lat="41.3782711874" lon="2.19187816556">
        <ele>16.2</ele>
        <time>2011-06-03T07:55:15Z</time>
      </trkpt>
      <trkpt lat="41.3780938264" lon="2.19176517755">
        <ele>16.2</ele>
        <time>2011-06-03T07:55:21Z</time>
      </trkpt>
      <trkpt lat="41.3779078321" lon="2.19166467857">
        <ele>15.8</ele>
        <time>2011-06-03T07:55:29Z</time>
      </trkpt>
      <trkpt lat="41.3777448041" lon="2.19159309715">
        <ele>15</ele>
        <time>2011-06-03T07:55:35Z</time>
      </trkpt>
      <trkpt lat="41.3775590612" lon="2.19148874249">
        <ele>14.6</ele>
        <time>2011-06-03T07:55:42Z</time>
      </trkpt>
      <trkpt lat="41.3773916747" lon="2.19141271866">
        <ele>14.4</ele>
        <time>2011-06-03T07:55:48Z</time>
      </trkpt>
      <trkpt lat="41.3772257969" lon="2.19131565626">
        <ele>14.2</ele>
        <time>2011-06-03T07:55:54Z</time>
      </trkpt>
      <trkpt lat="41.3770461727" lon="2.19120987668">
        <ele>14.2</ele>
        <time>2011-06-03T07:56:00Z</time>
      </trkpt>
      <trkpt lat="41.3768988189" lon="2.19112421366">
        <ele>14.2</ele>
        <time>2011-06-03T07:56:06Z</time>
      </trkpt>
      <trkpt lat="41.3767097233" lon="2.19102195448">
        <ele>14.2</ele>
        <time>2011-06-03T07:56:13Z</time>
      </trkpt>
      <trkpt lat="41.3765201247" lon="2.19088667061">
        <ele>14.2</ele>
        <time>2011-06-03T07:56:20Z</time>
      </trkpt>
      <trkpt lat="41.3763496369" lon="2.19079120077">
        <ele>14.2</ele>
        <time>2011-06-03T07:56:27Z</time>
      </trkpt>
      <trkpt lat="41.3761623014" lon="2.19070863906">
        <ele>14.2</ele>
        <time>2011-06-03T07:56:33Z</time>
      </trkpt>
      <trkpt lat="41.3759810847" lon="2.19063068739">
        <ele>14.2</ele>
        <time>2011-06-03T07:56:40Z</time>
      </trkpt>
      <trkpt lat="41.3757991137" lon="2.19054544347">
        <ele>14.2</ele>
        <time>2011-06-03T07:56:47Z</time>
      </trkpt>
      <trkpt lat="41.3756110238" lon="2.19043958007">
        <ele>14.2</ele>
        <time>2011-06-03T07:56:54Z</time>
      </trkpt>
      <trkpt lat="41.3754322379" lon="2.19035408469">
        <ele>14.8</ele>
        <time>2011-06-03T07:57:00Z</time>
      </trkpt>
      <trkpt lat="41.3753064256" lon="2.19030320656">
        <ele>15.4</ele>
        <time>2011-06-03T07:57:05Z</time>
      </trkpt>
      <trkpt lat="41.3751040865" lon="2.19024159959">
        <ele>15.8</ele>
        <time>2011-06-03T07:57:12Z</time>
      </trkpt>
      <trkpt lat="41.3749118895" lon="2.19016876088">
        <ele>16</ele>
        <time>2011-06-03T07:57:19Z</time>
      </trkpt>
      <trkpt lat="41.3748757636" lon="2.19012090023">
        <ele>16</ele>
        <time>2011-06-03T07:57:20Z</time>
      </trkpt>
      <trkpt lat="41.3748614305" lon="2.19010480698">
        <ele>16</ele>
        <time>2011-06-03T07:57:21Z</time>
      </trkpt>
      <trkpt lat="41.3746761905" lon="2.18999676429">
        <ele>16</ele>
        <time>2011-06-03T07:57:28Z</time>
      </trkpt>
      <trkpt lat="41.3745346202" lon="2.18987933387">
        <ele>16.2</ele>
        <time>2011-06-03T07:57:33Z</time>
      </trkpt>
      <trkpt lat="41.3743847519" lon="2.18973399173">
        <ele>16.2</ele>
        <time>2011-06-03T07:57:40Z</time>
      </trkpt>
      <trkpt lat="41.3742404994" lon="2.18966291321">
        <ele>16.2</ele>
        <time>2011-06-03T07:57:46Z</time>
      </trkpt>
      <trkpt lat="41.3740433571" lon="2.18958982305">
        <ele>16.2</ele>
        <time>2011-06-03T07:57:53Z</time>
      </trkpt>
      <trkpt lat="41.373876222" lon="2.1895335805">
        <ele>16.2</ele>
        <time>2011-06-03T07:57:59Z</time>
      </trkpt>
      <trkpt lat="41.3736987772" lon="2.18948295382">
        <ele>15.6</ele>
        <time>2011-06-03T07:58:05Z</time>
      </trkpt>
      <trkpt lat="41.373533067" lon="2.18944104432">
        <ele>15</ele>
        <time>2011-06-03T07:58:10Z</time>
      </trkpt>
      <trkpt lat="41.3733499225" lon="2.18941514425">
        <ele>14.6</ele>
        <time>2011-06-03T07:58:17Z</time>
      </trkpt>
      <trkpt lat="41.3731740702" lon="2.18938061082">
        <ele>14.4</ele>
        <time>2011-06-03T07:58:23Z</time>
      </trkpt>
      <trkpt lat="41.3730262973" lon="2.1893558004">
        <ele>14.2</ele>
        <time>2011-06-03T07:58:28Z</time>
      </trkpt>
      <trkpt lat="41.372850026" lon="2.18933811459">
        <ele>14.2</ele>
        <time>2011-06-03T07:58:33Z</time>
      </trkpt>
      <trkpt lat="41.3726963857" lon="2.18932436827">
        <ele>14.2</ele>
        <time>2011-06-03T07:58:39Z</time>
      </trkpt>
      <trkpt lat="41.3725227966" lon="2.18928983485">
        <ele>14.2</ele>
        <time>2011-06-03T07:58:45Z</time>
      </trkpt>
      <trkpt lat="41.3723450165" lon="2.18925907327">
        <ele>14.2</ele>
        <time>2011-06-03T07:58:51Z</time>
      </trkpt>
      <trkpt lat="41.3721535739" lon="2.18922554567">
        <ele>14.2</ele>
        <time>2011-06-03T07:58:58Z</time>
      </trkpt>
      <trkpt lat="41.3719617122" lon="2.18919880741">
        <ele>14.2</ele>
        <time>2011-06-03T07:59:04Z</time>
      </trkpt>
      <trkpt lat="41.3717791544" lon="2.18917408081">
        <ele>14.2</ele>
        <time>2011-06-03T07:59:11Z</time>
      </trkpt>
      <trkpt lat="41.3715955908" lon="2.18913326095">
        <ele>13.6</ele>
        <time>2011-06-03T07:59:18Z</time>
      </trkpt>
      <trkpt lat="41.3713929165" lon="2.18910015245">
        <ele>12.8</ele>
        <time>2011-06-03T07:59:25Z</time>
      </trkpt>
      <trkpt lat="41.371184291" lon="2.18906151189">
        <ele>12.4</ele>
        <time>2011-06-03T07:59:32Z</time>
      </trkpt>
      <trkpt lat="41.3710139708" lon="2.18902764901">
        <ele>12.2</ele>
        <time>2011-06-03T07:59:38Z</time>
      </trkpt>
      <trkpt lat="41.3708465004" lon="2.18899630071">
        <ele>12.2</ele>
        <time>2011-06-03T07:59:44Z</time>
      </trkpt>
      <trkpt lat="41.3706686365" lon="2.1889667126">
        <ele>12.2</ele>
        <time>2011-06-03T07:59:50Z</time>
      </trkpt>
      <trkpt lat="41.3704591728" lon="2.18893544811">
        <ele>12.2</ele>
        <time>2011-06-03T07:59:57Z</time>
      </trkpt>
      <trkpt lat="41.3702882659" lon="2.18891097297">
        <ele>12.2</ele>
        <time>2011-06-03T08:00:03Z</time>
      </trkpt>
      <trkpt lat="41.3700860944" lon="2.18889571791">
        <ele>12</ele>
        <time>2011-06-03T08:00:10Z</time>
      </trkpt>
      <trkpt lat="41.3699390759" lon="2.18888498907">
        <ele>12</ele>
        <time>2011-06-03T08:00:15Z</time>
      </trkpt>
      <trkpt lat="41.3697705997" lon="2.18891030241">
        <ele>11.6</ele>
        <time>2011-06-03T08:00:20Z</time>
      </trkpt>
      <trkpt lat="41.369657947" lon="2.188914661">
        <ele>11</ele>
        <time>2011-06-03T08:00:25Z</time>
      </trkpt>
      <trkpt lat="41.3695334758" lon="2.18899194212">
        <ele>10.6</ele>
        <time>2011-06-03T08:00:30Z</time>
      </trkpt>
      <trkpt lat="41.3694281991" lon="2.18907835951">
        <ele>10.4</ele>
        <time>2011-06-03T08:00:34Z</time>
      </trkpt>
      <trkpt lat="41.3692955975" lon="2.18919763395">
        <ele>10.2</ele>
        <time>2011-06-03T08:00:40Z</time>
      </trkpt>
      <trkpt lat="41.3691415381" lon="2.18933342073">
        <ele>10.2</ele>
        <time>2011-06-03T08:00:47Z</time>
      </trkpt>
      <trkpt lat="41.3690716331" lon="2.18939754226">
        <ele>10.2</ele>
        <time>2011-06-03T08:00:50Z</time>
      </trkpt>
      <trkpt lat="41.368933667" lon="2.18946283726">
        <ele>10.2</ele>
        <time>2011-06-03T08:00:56Z</time>
      </trkpt>
      <trkpt lat="41.368821601" lon="2.18954363878">
        <ele>10</ele>
        <time>2011-06-03T08:01:02Z</time>
      </trkpt>
    </trkseg>
  </trk>
</gpx>